sensor_id;sensor_type;location;lat;lon;timestamp;P1;durP1;ratioP1;P2;durP2;ratioP2
72864;SDS011;61000;48.120;11.548;2023-07-24T00:01:01;10.63;;;7.00;;
72864;SDS011;61000;48.120;11.548;2023-07-24T00:03:28;14.75;;;7.82;;
72864;SDS011;61000;48.120;11.548;2023-07-24T00:05:58;15.07;;;8.13;;
72864;SDS011;61000;48.120;11.548;2023-07-24T00:08:25;14.30;;;8.13;;
72864;SDS011;61000;48.120;11.548;2023-07-24T00:10:52;14.02;;;7.25;;
72864;SDS011;61000;48.120;11.548;2023-07-24T00:13:19;10.82;;;7.00;;
72864;SDS011;61000;48.120;11.548;2023-07-24T00:15:46;12.73;;;8.10;;
72864;SDS011;61000;48.120;11.548;2023-07-24T00:18:13;13.00;;;8.02;;
72864;SDS011;61000;48.120;11.548;2023-07-24T00:20:39;12.68;;;7.30;;
72864;SDS011;61000;48.120;11.548;2023-07-24T00:23:08;11.80;;;7.70;;
72864;SDS011;61000;48.120;11.548;2023-07-24T00:25:34;12.45;;;7.03;;
72864;SDS011;61000;48.120;11.548;2023-07-24T00:28:01;12.70;;;7.57;;
72864;SDS011;61000;48.120;11.548;2023-07-24T00:30:28;12.15;;;7.90;;
72864;SDS011;61000;48.120;11.548;2023-07-24T00:32:55;13.65;;;7.25;;
72864;SDS011;61000;48.120;11.548;2023-07-24T00:35:22;11.77;;;7.43;;
72864;SDS011;61000;48.120;11.548;2023-07-24T00:37:49;14.45;;;8.15;;
72864;SDS011;61000;48.120;11.548;2023-07-24T00:40:17;12.68;;;7.85;;
72864;SDS011;61000;48.120;11.548;2023-07-24T00:42:46;11.38;;;7.18;;
72864;SDS011;61000;48.120;11.548;2023-07-24T00:45:13;12.63;;;6.68;;
72864;SDS011;61000;48.120;11.548;2023-07-24T00:47:40;13.63;;;7.97;;
72864;SDS011;61000;48.120;11.548;2023-07-24T00:50:08;11.40;;;7.25;;
72864;SDS011;61000;48.120;11.548;2023-07-24T00:52:38;12.68;;;7.82;;
72864;SDS011;61000;48.120;11.548;2023-07-24T00:55:06;12.32;;;6.95;;
72864;SDS011;61000;48.120;11.548;2023-07-24T00:57:35;10.52;;;6.97;;
72864;SDS011;61000;48.120;11.548;2023-07-24T01:00:03;10.15;;;6.70;;
72864;SDS011;61000;48.120;11.548;2023-07-24T01:02:31;10.02;;;6.95;;
72864;SDS011;61000;48.120;11.548;2023-07-24T01:04:58;9.73;;;7.07;;
72864;SDS011;61000;48.120;11.548;2023-07-24T01:07:25;9.98;;;6.88;;
72864;SDS011;61000;48.120;11.548;2023-07-24T01:09:52;12.65;;;7.43;;
72864;SDS011;61000;48.120;11.548;2023-07-24T01:12:22;9.88;;;6.47;;
72864;SDS011;61000;48.120;11.548;2023-07-24T01:14:58;16.00;;;7.45;;
72864;SDS011;61000;48.120;11.548;2023-07-24T01:17:29;13.38;;;7.50;;
72864;SDS011;61000;48.120;11.548;2023-07-24T01:19:59;12.38;;;7.05;;
72864;SDS011;61000;48.120;11.548;2023-07-24T01:22:32;9.80;;;6.68;;
72864;SDS011;61000;48.120;11.548;2023-07-24T01:25:07;9.85;;;6.63;;
72864;SDS011;61000;48.120;11.548;2023-07-24T01:27:41;11.48;;;7.40;;
72864;SDS011;61000;48.120;11.548;2023-07-24T01:30:09;10.18;;;7.28;;
72864;SDS011;61000;48.120;11.548;2023-07-24T01:32:36;11.13;;;6.88;;
72864;SDS011;61000;48.120;11.548;2023-07-24T01:35:04;10.50;;;7.38;;
72864;SDS011;61000;48.120;11.548;2023-07-24T01:37:32;9.55;;;6.85;;
72864;SDS011;61000;48.120;11.548;2023-07-24T01:40:02;10.45;;;6.90;;
72864;SDS011;61000;48.120;11.548;2023-07-24T01:42:29;13.90;;;7.28;;
72864;SDS011;61000;48.120;11.548;2023-07-24T01:44:58;13.57;;;7.38;;
72864;SDS011;61000;48.120;11.548;2023-07-24T01:47:25;10.68;;;7.25;;
72864;SDS011;61000;48.120;11.548;2023-07-24T01:49:52;12.48;;;6.72;;
72864;SDS011;61000;48.120;11.548;2023-07-24T01:52:19;10.77;;;7.07;;
72864;SDS011;61000;48.120;11.548;2023-07-24T01:54:46;13.07;;;6.57;;
72864;SDS011;61000;48.120;11.548;2023-07-24T01:57:13;10.25;;;6.60;;
72864;SDS011;61000;48.120;11.548;2023-07-24T01:59:40;11.75;;;7.25;;
72864;SDS011;61000;48.120;11.548;2023-07-24T02:02:10;10.48;;;7.97;;
72864;SDS011;61000;48.120;11.548;2023-07-24T02:04:37;12.10;;;8.15;;
72864;SDS011;61000;48.120;11.548;2023-07-24T02:07:04;11.77;;;7.07;;
72864;SDS011;61000;48.120;11.548;2023-07-24T02:09:31;11.73;;;7.28;;
72864;SDS011;61000;48.120;11.548;2023-07-24T02:11:58;9.98;;;7.30;;
72864;SDS011;61000;48.120;11.548;2023-07-24T02:14:27;9.10;;;6.25;;
72864;SDS011;61000;48.120;11.548;2023-07-24T02:16:54;12.65;;;7.10;;
72864;SDS011;61000;48.120;11.548;2023-07-24T02:19:22;10.70;;;6.95;;
72864;SDS011;61000;48.120;11.548;2023-07-24T02:21:49;10.48;;;7.05;;
72864;SDS011;61000;48.120;11.548;2023-07-24T02:24:16;11.32;;;6.88;;
72864;SDS011;61000;48.120;11.548;2023-07-24T02:26:42;10.93;;;6.60;;
72864;SDS011;61000;48.120;11.548;2023-07-24T02:29:11;9.50;;;6.50;;
72864;SDS011;61000;48.120;11.548;2023-07-24T02:31:38;9.23;;;6.20;;
72864;SDS011;61000;48.120;11.548;2023-07-24T02:34:05;10.00;;;6.55;;
72864;SDS011;61000;48.120;11.548;2023-07-24T02:36:33;10.00;;;6.30;;
72864;SDS011;61000;48.120;11.548;2023-07-24T02:39:01;12.77;;;7.38;;
72864;SDS011;61000;48.120;11.548;2023-07-24T02:41:28;12.85;;;7.03;;
72864;SDS011;61000;48.120;11.548;2023-07-24T02:43:56;11.35;;;6.97;;
72864;SDS011;61000;48.120;11.548;2023-07-24T02:46:23;10.70;;;7.18;;
72864;SDS011;61000;48.120;11.548;2023-07-24T02:48:50;12.70;;;6.93;;
72864;SDS011;61000;48.120;11.548;2023-07-24T02:51:17;15.23;;;7.47;;
72864;SDS011;61000;48.120;11.548;2023-07-24T02:53:45;11.35;;;7.72;;
72864;SDS011;61000;48.120;11.548;2023-07-24T02:56:12;9.90;;;6.95;;
72864;SDS011;61000;48.120;11.548;2023-07-24T02:58:39;13.77;;;7.70;;
72864;SDS011;61000;48.120;11.548;2023-07-24T03:01:06;13.05;;;7.18;;
72864;SDS011;61000;48.120;11.548;2023-07-24T03:03:34;10.52;;;6.88;;
72864;SDS011;61000;48.120;11.548;2023-07-24T03:06:01;10.05;;;6.60;;
72864;SDS011;61000;48.120;11.548;2023-07-24T03:08:28;10.73;;;7.30;;
72864;SDS011;61000;48.120;11.548;2023-07-24T03:10:56;16.02;;;8.05;;
72864;SDS011;61000;48.120;11.548;2023-07-24T03:13:25;16.38;;;8.30;;
72864;SDS011;61000;48.120;11.548;2023-07-24T03:15:52;18.10;;;9.02;;
72864;SDS011;61000;48.120;11.548;2023-07-24T03:18:20;13.93;;;9.05;;
72864;SDS011;61000;48.120;11.548;2023-07-24T03:20:47;12.70;;;7.70;;
72864;SDS011;61000;48.120;11.548;2023-07-24T03:23:14;12.65;;;8.50;;
72864;SDS011;61000;48.120;11.548;2023-07-24T03:25:41;15.77;;;8.15;;
72864;SDS011;61000;48.120;11.548;2023-07-24T03:28:09;12.52;;;7.85;;
72864;SDS011;61000;48.120;11.548;2023-07-24T03:30:37;13.57;;;8.48;;
72864;SDS011;61000;48.120;11.548;2023-07-24T03:33:03;14.50;;;8.20;;
72864;SDS011;61000;48.120;11.548;2023-07-24T03:35:31;12.73;;;8.00;;
72864;SDS011;61000;48.120;11.548;2023-07-24T03:37:58;19.27;;;10.77;;
72864;SDS011;61000;48.120;11.548;2023-07-24T03:40:25;13.13;;;8.55;;
72864;SDS011;61000;48.120;11.548;2023-07-24T03:42:52;14.80;;;9.23;;
72864;SDS011;61000;48.120;11.548;2023-07-24T03:45:20;17.30;;;9.80;;
72864;SDS011;61000;48.120;11.548;2023-07-24T03:47:47;15.55;;;10.07;;
72864;SDS011;61000;48.120;11.548;2023-07-24T03:50:14;14.95;;;9.02;;
72864;SDS011;61000;48.120;11.548;2023-07-24T03:52:42;12.73;;;9.35;;
72864;SDS011;61000;48.120;11.548;2023-07-24T03:55:09;13.95;;;9.13;;
72864;SDS011;61000;48.120;11.548;2023-07-24T03:57:36;19.08;;;10.25;;
72864;SDS011;61000;48.120;11.548;2023-07-24T04:00:03;13.48;;;8.60;;
72864;SDS011;61000;48.120;11.548;2023-07-24T04:02:38;17.00;;;9.45;;
72864;SDS011;61000;48.120;11.548;2023-07-24T04:05:06;15.73;;;9.57;;
72864;SDS011;61000;48.120;11.548;2023-07-24T04:07:33;15.75;;;9.65;;
72864;SDS011;61000;48.120;11.548;2023-07-24T04:10:00;18.08;;;10.48;;
72864;SDS011;61000;48.120;11.548;2023-07-24T04:12:28;16.95;;;10.30;;
72864;SDS011;61000;48.120;11.548;2023-07-24T04:14:55;16.65;;;9.75;;
72864;SDS011;61000;48.120;11.548;2023-07-24T04:17:22;15.13;;;9.57;;
72864;SDS011;61000;48.120;11.548;2023-07-24T04:19:51;16.02;;;10.00;;
72864;SDS011;61000;48.120;11.548;2023-07-24T04:22:17;16.80;;;10.27;;
72864;SDS011;61000;48.120;11.548;2023-07-24T04:24:44;14.88;;;9.88;;
72864;SDS011;61000;48.120;11.548;2023-07-24T04:27:11;16.27;;;9.85;;
72864;SDS011;61000;48.120;11.548;2023-07-24T04:29:38;16.42;;;9.63;;
72864;SDS011;61000;48.120;11.548;2023-07-24T04:32:05;16.70;;;10.00;;
72864;SDS011;61000;48.120;11.548;2023-07-24T04:34:33;17.30;;;10.15;;
72864;SDS011;61000;48.120;11.548;2023-07-24T04:37:01;14.57;;;9.77;;
72864;SDS011;61000;48.120;11.548;2023-07-24T04:39:28;17.35;;;10.35;;
72864;SDS011;61000;48.120;11.548;2023-07-24T04:41:55;14.73;;;9.90;;
72864;SDS011;61000;48.120;11.548;2023-07-24T04:44:22;16.73;;;10.43;;
72864;SDS011;61000;48.120;11.548;2023-07-24T04:46:48;15.43;;;9.82;;
72864;SDS011;61000;48.120;11.548;2023-07-24T04:49:15;17.10;;;10.32;;
72864;SDS011;61000;48.120;11.548;2023-07-24T04:51:42;14.00;;;8.88;;
72864;SDS011;61000;48.120;11.548;2023-07-24T04:54:10;14.15;;;9.18;;
72864;SDS011;61000;48.120;11.548;2023-07-24T04:56:37;12.95;;;9.00;;
72864;SDS011;61000;48.120;11.548;2023-07-24T04:59:04;15.82;;;9.65;;
72864;SDS011;61000;48.120;11.548;2023-07-24T05:01:31;19.38;;;9.60;;
72864;SDS011;61000;48.120;11.548;2023-07-24T05:03:58;15.93;;;9.60;;
72864;SDS011;61000;48.120;11.548;2023-07-24T05:06:26;14.30;;;9.13;;
72864;SDS011;61000;48.120;11.548;2023-07-24T05:08:53;15.02;;;8.85;;
72864;SDS011;61000;48.120;11.548;2023-07-24T05:11:21;14.23;;;8.73;;
72864;SDS011;61000;48.120;11.548;2023-07-24T05:13:48;13.32;;;8.98;;
72864;SDS011;61000;48.120;11.548;2023-07-24T05:16:15;14.38;;;9.63;;
72864;SDS011;61000;48.120;11.548;2023-07-24T05:18:42;15.82;;;9.82;;
72864;SDS011;61000;48.120;11.548;2023-07-24T05:21:08;12.20;;;8.30;;
72864;SDS011;61000;48.120;11.548;2023-07-24T05:23:35;13.15;;;9.07;;
72864;SDS011;61000;48.120;11.548;2023-07-24T05:26:03;15.30;;;9.55;;
72864;SDS011;61000;48.120;11.548;2023-07-24T05:28:31;14.80;;;9.65;;
72864;SDS011;61000;48.120;11.548;2023-07-24T05:30:59;16.67;;;9.00;;
72864;SDS011;61000;48.120;11.548;2023-07-24T05:33:27;14.07;;;8.90;;
72864;SDS011;61000;48.120;11.548;2023-07-24T05:35:57;12.73;;;8.70;;
72864;SDS011;61000;48.120;11.548;2023-07-24T05:38:24;14.40;;;9.45;;
72864;SDS011;61000;48.120;11.548;2023-07-24T05:40:54;13.98;;;9.10;;
72864;SDS011;61000;48.120;11.548;2023-07-24T05:43:21;14.40;;;8.80;;
72864;SDS011;61000;48.120;11.548;2023-07-24T05:45:50;18.45;;;9.18;;
72864;SDS011;61000;48.120;11.548;2023-07-24T05:48:17;13.55;;;8.43;;
72864;SDS011;61000;48.120;11.548;2023-07-24T05:50:44;14.10;;;8.55;;
72864;SDS011;61000;48.120;11.548;2023-07-24T05:53:11;12.65;;;8.77;;
72864;SDS011;61000;48.120;11.548;2023-07-24T05:55:38;13.15;;;8.85;;
72864;SDS011;61000;48.120;11.548;2023-07-24T05:58:05;13.48;;;9.20;;
72864;SDS011;61000;48.120;11.548;2023-07-24T06:00:31;11.60;;;8.30;;
72864;SDS011;61000;48.120;11.548;2023-07-24T06:03:00;15.73;;;8.20;;
72864;SDS011;61000;48.120;11.548;2023-07-24T06:05:27;13.63;;;8.63;;
72864;SDS011;61000;48.120;11.548;2023-07-24T06:07:53;12.30;;;8.35;;
72864;SDS011;61000;48.120;11.548;2023-07-24T06:10:20;15.07;;;8.25;;
72864;SDS011;61000;48.120;11.548;2023-07-24T06:12:47;12.52;;;8.20;;
72864;SDS011;61000;48.120;11.548;2023-07-24T06:15:14;13.38;;;8.80;;
72864;SDS011;61000;48.120;11.548;2023-07-24T06:17:41;12.55;;;8.02;;
72864;SDS011;61000;48.120;11.548;2023-07-24T06:20:10;14.05;;;7.60;;
72864;SDS011;61000;48.120;11.548;2023-07-24T06:22:37;13.05;;;8.45;;
72864;SDS011;61000;48.120;11.548;2023-07-24T06:25:04;12.05;;;7.68;;
72864;SDS011;61000;48.120;11.548;2023-07-24T06:27:31;12.43;;;7.97;;
72864;SDS011;61000;48.120;11.548;2023-07-24T06:29:58;14.52;;;8.48;;
72864;SDS011;61000;48.120;11.548;2023-07-24T06:32:25;15.27;;;8.55;;
72864;SDS011;61000;48.120;11.548;2023-07-24T06:34:54;11.43;;;8.07;;
72864;SDS011;61000;48.120;11.548;2023-07-24T06:37:22;11.77;;;7.82;;
72864;SDS011;61000;48.120;11.548;2023-07-24T06:39:49;15.52;;;9.35;;
72864;SDS011;61000;48.120;11.548;2023-07-24T06:42:16;12.27;;;7.40;;
72864;SDS011;61000;48.120;11.548;2023-07-24T06:44:43;13.63;;;7.13;;
72864;SDS011;61000;48.120;11.548;2023-07-24T06:47:09;12.82;;;7.93;;
72864;SDS011;61000;48.120;11.548;2023-07-24T06:49:36;13.05;;;8.88;;
72864;SDS011;61000;48.120;11.548;2023-07-24T06:52:03;10.23;;;6.93;;
72864;SDS011;61000;48.120;11.548;2023-07-24T06:54:32;12.70;;;7.45;;
72864;SDS011;61000;48.120;11.548;2023-07-24T06:56:59;13.25;;;8.55;;
72864;SDS011;61000;48.120;11.548;2023-07-24T06:59:26;12.80;;;7.57;;
72864;SDS011;61000;48.120;11.548;2023-07-24T07:01:53;11.90;;;8.00;;
72864;SDS011;61000;48.120;11.548;2023-07-24T07:04:20;13.55;;;7.68;;
72864;SDS011;61000;48.120;11.548;2023-07-24T07:06:46;11.88;;;7.70;;
72864;SDS011;61000;48.120;11.548;2023-07-24T07:09:13;15.07;;;8.68;;
72864;SDS011;61000;48.120;11.548;2023-07-24T07:11:41;13.77;;;7.78;;
72864;SDS011;61000;48.120;11.548;2023-07-24T07:14:09;14.23;;;7.63;;
72864;SDS011;61000;48.120;11.548;2023-07-24T07:16:37;10.52;;;7.65;;
72864;SDS011;61000;48.120;11.548;2023-07-24T07:19:05;13.38;;;8.38;;
72864;SDS011;61000;48.120;11.548;2023-07-24T07:21:34;12.23;;;7.57;;
72864;SDS011;61000;48.120;11.548;2023-07-24T07:24:01;9.95;;;7.53;;
72864;SDS011;61000;48.120;11.548;2023-07-24T07:26:28;13.68;;;8.35;;
72864;SDS011;61000;48.120;11.548;2023-07-24T07:28:56;12.63;;;7.90;;
72864;SDS011;61000;48.120;11.548;2023-07-24T07:31:23;17.08;;;8.85;;
72864;SDS011;61000;48.120;11.548;2023-07-24T07:33:50;13.05;;;8.45;;
72864;SDS011;61000;48.120;11.548;2023-07-24T07:36:17;13.82;;;7.50;;
72864;SDS011;61000;48.120;11.548;2023-07-24T07:38:44;12.85;;;8.43;;
72864;SDS011;61000;48.120;11.548;2023-07-24T07:41:11;18.65;;;9.25;;
72864;SDS011;61000;48.120;11.548;2023-07-24T07:43:38;12.88;;;7.88;;
72864;SDS011;61000;48.120;11.548;2023-07-24T07:46:06;10.82;;;7.60;;
72864;SDS011;61000;48.120;11.548;2023-07-24T07:48:33;12.32;;;7.90;;
72864;SDS011;61000;48.120;11.548;2023-07-24T07:51:00;14.65;;;8.00;;
72864;SDS011;61000;48.120;11.548;2023-07-24T07:53:27;14.02;;;8.00;;
72864;SDS011;61000;48.120;11.548;2023-07-24T07:55:56;13.10;;;8.50;;
72864;SDS011;61000;48.120;11.548;2023-07-24T07:58:24;18.98;;;9.50;;
72864;SDS011;61000;48.120;11.548;2023-07-24T08:00:51;13.65;;;8.95;;
72864;SDS011;61000;48.120;11.548;2023-07-24T08:03:20;16.70;;;8.25;;
72864;SDS011;61000;48.120;11.548;2023-07-24T08:05:47;14.25;;;8.77;;
72864;SDS011;61000;48.120;11.548;2023-07-24T08:08:14;14.65;;;9.27;;
72864;SDS011;61000;48.120;11.548;2023-07-24T08:10:41;16.55;;;9.07;;
72864;SDS011;61000;48.120;11.548;2023-07-24T08:13:07;13.55;;;8.73;;
72864;SDS011;61000;48.120;11.548;2023-07-24T08:15:35;12.95;;;8.68;;
72864;SDS011;61000;48.120;11.548;2023-07-24T08:18:02;16.63;;;8.48;;
72864;SDS011;61000;48.120;11.548;2023-07-24T08:20:31;15.75;;;9.02;;
72864;SDS011;61000;48.120;11.548;2023-07-24T08:23:02;15.30;;;8.98;;
72864;SDS011;61000;48.120;11.548;2023-07-24T08:25:29;13.70;;;8.50;;
72864;SDS011;61000;48.120;11.548;2023-07-24T08:27:56;15.02;;;8.60;;
72864;SDS011;61000;48.120;11.548;2023-07-24T08:30:23;12.27;;;8.38;;
72864;SDS011;61000;48.120;11.548;2023-07-24T08:32:50;12.98;;;8.05;;
72864;SDS011;61000;48.120;11.548;2023-07-24T08:35:20;13.10;;;8.48;;
72864;SDS011;61000;48.120;11.548;2023-07-24T08:37:48;15.18;;;8.63;;
72864;SDS011;61000;48.120;11.548;2023-07-24T08:40:15;15.25;;;8.57;;
72864;SDS011;61000;48.120;11.548;2023-07-24T08:42:42;11.65;;;8.38;;
72864;SDS011;61000;48.120;11.548;2023-07-24T08:45:11;11.23;;;6.85;;
72864;SDS011;61000;48.120;11.548;2023-07-24T08:47:40;13.00;;;7.88;;
72864;SDS011;61000;48.120;11.548;2023-07-24T08:50:09;15.35;;;8.25;;
72864;SDS011;61000;48.120;11.548;2023-07-24T08:52:37;14.77;;;8.07;;
72864;SDS011;61000;48.120;11.548;2023-07-24T08:55:06;13.82;;;7.85;;
72864;SDS011;61000;48.120;11.548;2023-07-24T08:57:34;12.52;;;8.63;;
72864;SDS011;61000;48.120;11.548;2023-07-24T09:00:01;10.20;;;6.93;;
72864;SDS011;61000;48.120;11.548;2023-07-24T09:02:30;12.30;;;7.78;;
72864;SDS011;61000;48.120;11.548;2023-07-24T09:04:57;14.10;;;7.88;;
72864;SDS011;61000;48.120;11.548;2023-07-24T09:07:25;11.40;;;7.88;;
72864;SDS011;61000;48.120;11.548;2023-07-24T09:09:52;11.40;;;7.60;;
72864;SDS011;61000;48.120;11.548;2023-07-24T09:12:21;14.38;;;7.72;;
72864;SDS011;61000;48.120;11.548;2023-07-24T09:14:59;10.02;;;6.80;;
72864;SDS011;61000;48.120;11.548;2023-07-24T09:17:28;12.35;;;6.32;;
72864;SDS011;61000;48.120;11.548;2023-07-24T09:19:59;12.68;;;7.32;;
72864;SDS011;61000;48.120;11.548;2023-07-24T09:22:29;15.00;;;7.20;;
72864;SDS011;61000;48.120;11.548;2023-07-24T09:24:56;14.52;;;6.80;;
72864;SDS011;61000;48.120;11.548;2023-07-24T09:27:28;16.27;;;7.93;;
72864;SDS011;61000;48.120;11.548;2023-07-24T09:30:11;12.90;;;6.97;;
72864;SDS011;61000;48.120;11.548;2023-07-24T09:32:39;12.70;;;6.13;;
72864;SDS011;61000;48.120;11.548;2023-07-24T09:35:15;9.93;;;5.93;;
72864;SDS011;61000;48.120;11.548;2023-07-24T09:37:43;9.35;;;5.88;;
72864;SDS011;61000;48.120;11.548;2023-07-24T09:40:11;8.30;;;5.15;;
72864;SDS011;61000;48.120;11.548;2023-07-24T09:42:41;7.22;;;4.90;;
72864;SDS011;61000;48.120;11.548;2023-07-24T09:45:09;7.90;;;5.38;;
72864;SDS011;61000;48.120;11.548;2023-07-24T09:47:36;10.13;;;5.32;;
72864;SDS011;61000;48.120;11.548;2023-07-24T09:50:05;8.75;;;5.78;;
72864;SDS011;61000;48.120;11.548;2023-07-24T09:52:33;6.78;;;5.00;;
72864;SDS011;61000;48.120;11.548;2023-07-24T09:55:04;6.57;;;4.63;;
72864;SDS011;61000;48.120;11.548;2023-07-24T09:57:34;6.03;;;4.18;;
72864;SDS011;61000;48.120;11.548;2023-07-24T10:00:04;5.05;;;3.85;;
72864;SDS011;61000;48.120;11.548;2023-07-24T10:02:33;6.60;;;4.20;;
72864;SDS011;61000;48.120;11.548;2023-07-24T10:05:00;4.93;;;3.88;;
72864;SDS011;61000;48.120;11.548;2023-07-24T10:07:27;4.32;;;3.63;;
72864;SDS011;61000;48.120;11.548;2023-07-24T10:09:54;5.38;;;4.15;;
72864;SDS011;61000;48.120;11.548;2023-07-24T10:12:21;5.30;;;3.97;;
72864;SDS011;61000;48.120;11.548;2023-07-24T10:14:49;5.25;;;3.88;;
72864;SDS011;61000;48.120;11.548;2023-07-24T10:17:26;6.03;;;4.10;;
72864;SDS011;61000;48.120;11.548;2023-07-24T10:20:01;5.15;;;3.97;;
72864;SDS011;61000;48.120;11.548;2023-07-24T10:22:29;6.75;;;4.25;;
72864;SDS011;61000;48.120;11.548;2023-07-24T10:24:56;6.47;;;4.03;;
72864;SDS011;61000;48.120;11.548;2023-07-24T10:27:23;5.60;;;4.18;;
72864;SDS011;61000;48.120;11.548;2023-07-24T10:29:57;5.13;;;3.75;;
72864;SDS011;61000;48.120;11.548;2023-07-24T10:32:26;4.65;;;3.67;;
72864;SDS011;61000;48.120;11.548;2023-07-24T10:34:58;4.90;;;3.85;;
72864;SDS011;61000;48.120;11.548;2023-07-24T10:37:35;5.38;;;3.95;;
72864;SDS011;61000;48.120;11.548;2023-07-24T10:40:03;6.22;;;4.50;;
72864;SDS011;61000;48.120;11.548;2023-07-24T10:42:30;6.95;;;4.28;;
72864;SDS011;61000;48.120;11.548;2023-07-24T10:45:05;6.60;;;4.25;;
72864;SDS011;61000;48.120;11.548;2023-07-24T10:47:34;7.22;;;4.95;;
72864;SDS011;61000;48.120;11.548;2023-07-24T10:50:01;5.63;;;4.57;;
72864;SDS011;61000;48.120;11.548;2023-07-24T10:52:29;6.82;;;4.72;;
72864;SDS011;61000;48.120;11.548;2023-07-24T10:54:56;6.93;;;4.22;;
72864;SDS011;61000;48.120;11.548;2023-07-24T10:57:25;6.47;;;4.82;;
72864;SDS011;61000;48.120;11.548;2023-07-24T10:59:52;6.18;;;4.90;;
72864;SDS011;61000;48.120;11.548;2023-07-24T11:02:19;6.78;;;4.18;;
72864;SDS011;61000;48.120;11.548;2023-07-24T11:04:47;6.72;;;4.10;;
72864;SDS011;61000;48.120;11.548;2023-07-24T11:07:15;4.82;;;3.90;;
72864;SDS011;61000;48.120;11.548;2023-07-24T11:09:42;7.80;;;4.30;;
72864;SDS011;61000;48.120;11.548;2023-07-24T11:12:10;5.32;;;3.90;;
72864;SDS011;61000;48.120;11.548;2023-07-24T11:14:48;6.82;;;4.57;;
72864;SDS011;61000;48.120;11.548;2023-07-24T11:17:15;10.13;;;4.35;;
72864;SDS011;61000;48.120;11.548;2023-07-24T11:19:43;6.22;;;4.53;;
72864;SDS011;61000;48.120;11.548;2023-07-24T11:22:11;7.05;;;4.68;;
72864;SDS011;61000;48.120;11.548;2023-07-24T11:24:42;7.22;;;5.15;;
72864;SDS011;61000;48.120;11.548;2023-07-24T11:27:10;8.00;;;5.05;;
72864;SDS011;61000;48.120;11.548;2023-07-24T11:29:40;6.97;;;4.93;;
72864;SDS011;61000;48.120;11.548;2023-07-24T11:32:07;6.70;;;4.90;;
72864;SDS011;61000;48.120;11.548;2023-07-24T11:34:34;7.65;;;5.07;;
72864;SDS011;61000;48.120;11.548;2023-07-24T11:37:02;5.97;;;4.45;;
72864;SDS011;61000;48.120;11.548;2023-07-24T11:39:30;6.13;;;5.03;;
72864;SDS011;61000;48.120;11.548;2023-07-24T11:41:58;6.93;;;5.00;;
72864;SDS011;61000;48.120;11.548;2023-07-24T11:44:27;10.00;;;4.57;;
72864;SDS011;61000;48.120;11.548;2023-07-24T11:47:01;8.50;;;4.55;;
72864;SDS011;61000;48.120;11.548;2023-07-24T11:49:29;6.85;;;5.13;;
72864;SDS011;61000;48.120;11.548;2023-07-24T11:52:00;8.18;;;5.40;;
72864;SDS011;61000;48.120;11.548;2023-07-24T11:54:28;6.95;;;5.00;;
72864;SDS011;61000;48.120;11.548;2023-07-24T11:56:57;7.40;;;4.47;;
72864;SDS011;61000;48.120;11.548;2023-07-24T11:59:24;9.40;;;4.57;;
72864;SDS011;61000;48.120;11.548;2023-07-24T12:01:52;6.28;;;4.78;;
72864;SDS011;61000;48.120;11.548;2023-07-24T12:04:19;8.25;;;4.55;;
72864;SDS011;61000;48.120;11.548;2023-07-24T12:06:46;7.97;;;4.20;;
72864;SDS011;61000;48.120;11.548;2023-07-24T12:09:13;6.55;;;4.22;;
72864;SDS011;61000;48.120;11.548;2023-07-24T12:11:41;10.57;;;4.80;;
72864;SDS011;61000;48.120;11.548;2023-07-24T12:14:09;6.70;;;4.15;;
72864;SDS011;61000;48.120;11.548;2023-07-24T12:16:36;6.53;;;4.47;;
72864;SDS011;61000;48.120;11.548;2023-07-24T12:19:04;4.70;;;3.55;;
72864;SDS011;61000;48.120;11.548;2023-07-24T12:21:31;7.38;;;4.50;;
72864;SDS011;61000;48.120;11.548;2023-07-24T12:23:58;6.28;;;3.78;;
72864;SDS011;61000;48.120;11.548;2023-07-24T12:26:25;6.88;;;4.25;;
72864;SDS011;61000;48.120;11.548;2023-07-24T12:28:54;5.80;;;4.15;;
72864;SDS011;61000;48.120;11.548;2023-07-24T12:31:21;5.43;;;4.20;;
72864;SDS011;61000;48.120;11.548;2023-07-24T12:33:48;6.22;;;3.92;;
72864;SDS011;61000;48.120;11.548;2023-07-24T12:36:15;7.45;;;4.50;;
72864;SDS011;61000;48.120;11.548;2023-07-24T12:38:42;5.57;;;3.85;;
72864;SDS011;61000;48.120;11.548;2023-07-24T12:41:09;5.88;;;4.03;;
72864;SDS011;61000;48.120;11.548;2023-07-24T12:43:36;5.53;;;4.10;;
72864;SDS011;61000;48.120;11.548;2023-07-24T12:46:04;9.20;;;4.35;;
72864;SDS011;61000;48.120;11.548;2023-07-24T12:48:31;7.72;;;5.10;;
72864;SDS011;61000;48.120;11.548;2023-07-24T12:50:58;6.53;;;4.47;;
72864;SDS011;61000;48.120;11.548;2023-07-24T12:53:26;6.97;;;4.88;;
72864;SDS011;61000;48.120;11.548;2023-07-24T12:55:53;6.70;;;4.30;;
72864;SDS011;61000;48.120;11.548;2023-07-24T12:58:20;9.05;;;4.55;;
72864;SDS011;61000;48.120;11.548;2023-07-24T13:00:47;9.07;;;4.82;;
72864;SDS011;61000;48.120;11.548;2023-07-24T13:03:15;5.85;;;4.00;;
72864;SDS011;61000;48.120;11.548;2023-07-24T13:05:42;7.68;;;4.78;;
72864;SDS011;61000;48.120;11.548;2023-07-24T13:08:09;8.80;;;4.72;;
72864;SDS011;61000;48.120;11.548;2023-07-24T13:10:36;7.55;;;4.57;;
72864;SDS011;61000;48.120;11.548;2023-07-24T13:13:04;8.15;;;4.82;;
72864;SDS011;61000;48.120;11.548;2023-07-24T13:15:31;6.47;;;4.43;;
72864;SDS011;61000;48.120;11.548;2023-07-24T13:17:58;6.80;;;4.35;;
72864;SDS011;61000;48.120;11.548;2023-07-24T13:20:26;9.00;;;4.90;;
72864;SDS011;61000;48.120;11.548;2023-07-24T13:22:53;8.55;;;4.93;;
72864;SDS011;61000;48.120;11.548;2023-07-24T13:25:20;8.32;;;4.55;;
72864;SDS011;61000;48.120;11.548;2023-07-24T13:27:47;7.25;;;5.03;;
72864;SDS011;61000;48.120;11.548;2023-07-24T13:30:14;9.18;;;5.40;;
72864;SDS011;61000;48.120;11.548;2023-07-24T13:32:42;9.23;;;5.40;;
72864;SDS011;61000;48.120;11.548;2023-07-24T13:35:09;7.05;;;4.80;;
72864;SDS011;61000;48.120;11.548;2023-07-24T13:37:37;7.68;;;4.75;;
72864;SDS011;61000;48.120;11.548;2023-07-24T13:40:05;11.98;;;5.30;;
72864;SDS011;61000;48.120;11.548;2023-07-24T13:42:32;8.23;;;5.13;;
72864;SDS011;61000;48.120;11.548;2023-07-24T13:44:59;7.35;;;4.75;;
72864;SDS011;61000;48.120;11.548;2023-07-24T13:47:26;6.70;;;4.82;;
72864;SDS011;61000;48.120;11.548;2023-07-24T13:49:53;7.75;;;4.95;;
72864;SDS011;61000;48.120;11.548;2023-07-24T13:52:22;7.50;;;4.55;;
72864;SDS011;61000;48.120;11.548;2023-07-24T13:54:50;7.47;;;4.38;;
72864;SDS011;61000;48.120;11.548;2023-07-24T13:57:17;5.88;;;4.70;;
72864;SDS011;61000;48.120;11.548;2023-07-24T13:59:44;10.20;;;4.63;;
72864;SDS011;61000;48.120;11.548;2023-07-24T14:02:11;4.70;;;3.38;;
72864;SDS011;61000;48.120;11.548;2023-07-24T14:04:38;7.03;;;3.88;;
72864;SDS011;61000;48.120;11.548;2023-07-24T14:07:05;4.28;;;3.53;;
72864;SDS011;61000;48.120;11.548;2023-07-24T14:09:33;7.10;;;4.68;;
72864;SDS011;61000;48.120;11.548;2023-07-24T14:12:01;5.40;;;3.45;;
72864;SDS011;61000;48.120;11.548;2023-07-24T14:14:29;4.25;;;3.08;;
72864;SDS011;61000;48.120;11.548;2023-07-24T14:16:55;5.07;;;3.60;;
72864;SDS011;61000;48.120;11.548;2023-07-24T14:19:23;5.60;;;3.40;;
72864;SDS011;61000;48.120;11.548;2023-07-24T14:21:50;4.88;;;3.30;;
72864;SDS011;61000;48.120;11.548;2023-07-24T14:24:17;4.35;;;3.38;;
72864;SDS011;61000;48.120;11.548;2023-07-24T14:26:44;5.05;;;3.20;;
72864;SDS011;61000;48.120;11.548;2023-07-24T14:29:12;3.67;;;2.60;;